Time;durP1;ratioP1;P1;durP2;ratioP2;P2;SDS_P1;SDS_P2;PMS_P1;PMS_P2;Temp;Humidity;BMP_temperature;BMP_pressure;BME280_temperature;BME280_humidity;BME280_pressure;Samples;Min_cycle;Max_cycle;Signal;HPM_P1;HPM_P2
2023/03/04 00:01:32;;;;;;;0.60;0.60;;;6.40;99.90;;;;;;5032466;28;20040;-77
2023/03/04 00:03:58;;;;;;;0.70;0.70;;;6.40;99.90;;;;;;5036371;28;20137;-76
2023/03/04 00:06:24;;;;;;;0.70;0.70;;;6.40;99.90;;;;;;5031573;28;20473;-76
2023/03/04 00:08:50;;;;;;;0.70;0.70;;;6.30;99.90;;;;;;5039507;28;20037;-77
2023/03/04 00:11:15;;;;;;;0.70;0.70;;;6.30;99.90;;;;;;5036034;28;20882;-77
2023/03/04 00:13:41;;;;;;;0.70;0.70;;;6.40;99.90;;;;;;5030337;28;20037;-77
2023/03/04 00:16:07;;;;;;;0.70;0.70;;;6.40;99.90;;;;;;5030059;28;20482;-77
2023/03/04 00:18:32;;;;;;;0.75;0.75;;;6.40;99.90;;;;;;5038411;28;20059;-76
2023/03/04 00:20:58;;;;;;;0.70;0.70;;;6.40;99.90;;;;;;5036404;28;20044;-76
2023/03/04 00:23:24;;;;;;;0.70;0.70;;;6.40;99.90;;;;;;5039253;28;20078;-76
2023/03/04 00:25:50;;;;;;;0.70;0.70;;;6.40;99.90;;;;;;5034214;28;20737;-77
2023/03/04 00:28:15;;;;;;;0.70;0.70;;;6.40;99.90;;;;;;5029842;28;20532;-76
2023/03/04 00:30:41;;;;;;;0.77;0.77;;;6.40;99.90;;;;;;5033174;28;20036;-76
2023/03/04 00:33:06;;;;;;;0.70;0.70;;;6.40;99.90;;;;;;5029436;28;20072;-77
2023/03/04 00:35:32;;;;;;;0.70;0.70;;;6.40;99.90;;;;;;5028969;28;20151;-77
2023/03/04 00:37:58;;;;;;;0.70;0.70;;;6.40;99.90;;;;;;5034195;28;20613;-76
2023/03/04 00:40:24;;;;;;;0.70;0.70;;;6.30;99.90;;;;;;5045565;28;20036;-76
2023/03/04 00:42:49;;;;;;;0.70;0.70;;;6.40;99.90;;;;;;5044598;28;20052;-76
2023/03/04 00:45:15;;;;;;;0.70;0.70;;;6.30;99.90;;;;;;5035474;28;20152;-76
2023/03/04 00:47:41;;;;;;;0.70;0.70;;;6.30;99.90;;;;;;5038504;28;20222;-77
2023/03/04 00:50:07;;;;;;;0.70;0.70;;;6.30;99.90;;;;;;5044659;28;20048;-76
2023/03/04 00:52:33;;;;;;;0.70;0.70;;;6.30;99.90;;;;;;5039901;28;20110;-77
2023/03/04 00:54:58;;;;;;;0.70;0.70;;;6.30;99.90;;;;;;5041737;28;20663;-77
2023/03/04 00:57:24;;;;;;;0.77;0.77;;;6.30;99.90;;;;;;5041700;28;20109;-77
2023/03/04 00:59:50;;;;;;;0.70;0.70;;;6.30;99.90;;;;;;5032472;28;20097;-76
2023/03/04 01:02:15;;;;;;;0.70;0.70;;;6.30;99.90;;;;;;5039103;28;20045;-76
2023/03/04 01:04:41;;;;;;;0.70;0.70;;;6.30;99.90;;;;;;5032467;28;20068;-77
2023/03/04 01:07:07;;;;;;;0.70;0.70;;;6.30;99.90;;;;;;5040616;28;20040;-76
2023/03/04 01:09:33;;;;;;;0.70;0.70;;;6.30;99.90;;;;;;5038251;28;20521;-77
2023/03/04 01:11:59;;;;;;;0.70;0.70;;;6.20;99.90;;;;;;5042357;28;20686;-77
2023/03/04 01:14:25;;;;;;;0.70;0.70;;;6.30;99.90;;;;;;5039967;28;20052;-77
2023/03/04 01:16:51;;;;;;;0.70;0.70;;;6.30;99.90;;;;;;5020663;28;20048;-77
2023/03/04 01:19:17;;;;;;;0.70;0.70;;;6.30;99.90;;;;;;5039646;28;20041;-76
2023/03/04 01:21:43;;;;;;;0.75;0.75;;;6.30;99.90;;;;;;5038477;28;20052;-76
2023/03/04 01:24:09;;;;;;;0.70;0.70;;;6.20;99.90;;;;;;5040282;28;20102;-76
2023/03/04 01:26:35;;;;;;;0.70;0.70;;;6.20;99.90;;;;;;5034397;28;20836;-76
2023/03/04 01:29:02;;;;;;;0.70;0.70;;;6.30;99.90;;;;;;5036883;28;20040;-76
2023/03/04 01:31:28;;;;;;;0.70;0.70;;;6.30;99.90;;;;;;5040548;28;20619;-76
2023/03/04 01:33:54;;;;;;;0.70;0.70;;;6.20;99.90;;;;;;5038651;28;20056;-77
2023/03/04 01:36:20;;;;;;;0.70;0.70;;;6.30;99.90;;;;;;5036984;28;20712;-77
2023/03/04 01:38:45;;;;;;;0.70;0.70;;;6.30;99.90;;;;;;5038463;28;20080;-76
2023/03/04 01:41:12;;;;;;;0.70;0.70;;;6.30;99.90;;;;;;5038270;28;20068;-77
2023/03/04 01:43:38;;;;;;;0.70;0.70;;;6.30;99.90;;;;;;5040818;28;20040;-76
2023/03/04 01:46:05;;;;;;;0.70;0.70;;;6.30;99.90;;;;;;5019880;28;20044;-76
2023/03/04 01:48:35;;;;;;;0.70;0.70;;;6.30;99.90;;;;;;5038045;28;20037;-77
2023/03/04 01:51:03;;;;;;;0.70;0.70;;;6.30;99.90;;;;;;5039486;28;20041;-76
2023/03/04 01:53:30;;;;;;;0.70;0.70;;;6.30;99.90;;;;;;5035148;28;20102;-76
2023/03/04 01:56:00;;;;;;;0.70;0.70;;;6.30;99.90;;;;;;5036105;28;20051;-76
2023/03/04 01:58:29;;;;;;;0.70;0.70;;;6.20;99.90;;;;;;5036585;28;20145;-76
2023/03/04 02:00:56;;;;;;;0.80;0.80;;;6.30;99.90;;;;;;5040788;28;20052;-77
2023/03/04 02:03:22;;;;;;;0.70;0.70;;;6.30;99.90;;;;;;5032206;28;20811;-77
2023/03/04 02:05:49;;;;;;;0.70;0.70;;;6.20;99.90;;;;;;5039374;28;20049;-76
2023/03/04 02:08:19;;;;;;;0.70;0.70;;;6.20;99.90;;;;;;5037586;28;20718;-76
2023/03/04 02:10:46;;;;;;;0.70;0.70;;;6.20;99.90;;;;;;5039712;28;20048;-76
2023/03/04 02:13:12;;;;;;;0.70;0.70;;;6.30;99.90;;;;;;5037416;28;20083;-76
2023/03/04 02:15:38;;;;;;;0.70;0.70;;;6.20;99.90;;;;;;5019501;28;20449;-77
2023/03/04 02:18:17;;;;;;;0.70;0.70;;;6.20;99.90;;;;;;5040678;28;20052;-77
2023/03/04 02:21:01;;;;;;;0.70;0.70;;;6.30;99.90;;;;;;5040361;28;20067;-76
2023/03/04 02:23:48;;;;;;;0.77;0.77;;;6.20;99.90;;;;;;5038537;28;20109;-76
2023/03/04 02:26:19;;;;;;;0.70;0.70;;;6.20;99.90;;;;;;5037122;28;20078;-76
2023/03/04 02:28:48;;;;;;;0.80;0.80;;;6.30;99.90;;;;;;5041111;28;20047;-76
2023/03/04 02:31:34;;;;;;;0.70;0.70;;;6.30;99.90;;;;;;5037259;28;20041;-76
2023/03/04 02:34:03;;;;;;;0.70;0.70;;;6.20;99.90;;;;;;5041309;28;20561;-76
2023/03/04 02:36:30;;;;;;;0.70;0.70;;;6.20;99.90;;;;;;5049312;28;20045;-76
2023/03/04 02:39:06;;;;;;;0.70;0.70;;;6.20;99.90;;;;;;5039156;28;20060;-76
2023/03/04 02:41:31;;;;;;;0.80;0.80;;;6.20;99.90;;;;;;5037286;28;20041;-76
2023/03/04 02:43:57;;;;;;;0.70;0.70;;;6.20;99.90;;;;;;5037822;28;20040;-77
2023/03/04 02:46:23;;;;;;;0.68;0.68;;;6.20;99.90;;;;;;5034240;28;20044;-77
2023/03/04 02:48:50;;;;;;;0.73;0.73;;;6.20;99.90;;;;;;5036589;28;20461;-77
2023/03/04 02:51:16;;;;;;;0.70;0.70;;;6.20;99.90;;;;;;5036500;28;20587;-77
2023/03/04 02:53:42;;;;;;;0.70;0.70;;;6.20;99.90;;;;;;5036701;28;20051;-76
2023/03/04 02:56:08;;;;;;;0.70;0.70;;;6.20;99.90;;;;;;5037566;28;20041;-76
2023/03/04 02:58:33;;;;;;;0.80;0.80;;;6.20;99.90;;;;;;5020753;28;20109;-76
2023/03/04 03:00:59;;;;;;;0.73;0.73;;;6.20;99.90;;;;;;5040269;28;20043;-76
2023/03/04 03:03:25;;;;;;;0.70;0.70;;;6.10;99.90;;;;;;5034008;28;20056;-77
2023/03/04 03:05:53;;;;;;;0.70;0.70;;;6.20;99.90;;;;;;5031821;28;20048;-76
2023/03/04 03:08:18;;;;;;;0.70;0.70;;;6.20;99.90;;;;;;5035521;28;20048;-76
2023/03/04 03:10:44;;;;;;;0.70;0.70;;;6.10;99.90;;;;;;5040007;28;20506;-76
2023/03/04 03:13:10;;;;;;;0.80;0.80;;;6.10;99.90;;;;;;5025355;28;20045;-76
2023/03/04 03:15:40;;;;;;;0.70;0.70;;;6.10;99.90;;;;;;5039130;28;20057;-76
2023/03/04 03:18:10;;;;;;;0.80;0.80;;;6.20;99.90;;;;;;5041716;28;20087;-76
2023/03/04 03:20:36;;;;;;;0.80;0.80;;;6.10;99.90;;;;;;5042909;28;20048;-76
2023/03/04 03:23:02;;;;;;;0.80;0.80;;;6.20;99.90;;;;;;5044199;28;20074;-77
2023/03/04 03:25:27;;;;;;;0.73;0.73;;;6.10;99.90;;;;;;5036561;28;20821;-76
2023/03/04 03:27:53;;;;;;;0.80;0.80;;;6.10;99.90;;;;;;5039514;28;20044;-76
2023/03/04 03:30:19;;;;;;;0.70;0.70;;;6.10;99.90;;;;;;5041854;28;20040;-76
2023/03/04 03:32:45;;;;;;;0.80;0.80;;;6.00;99.90;;;;;;5039380;28;20047;-77
2023/03/04 03:35:10;;;;;;;0.70;0.70;;;6.10;99.90;;;;;;5038306;28;20143;-76
2023/03/04 03:37:36;;;;;;;0.80;0.80;;;6.10;99.90;;;;;;5038695;28;20116;-77
2023/03/04 03:40:03;;;;;;;0.75;0.75;;;6.00;99.90;;;;;;5041462;28;20060;-76
2023/03/04 03:42:29;;;;;;;0.80;0.80;;;6.00;99.90;;;;;;5039305;28;20139;-76
2023/03/04 03:44:54;;;;;;;0.75;0.75;;;6.00;99.90;;;;;;5034503;28;20588;-76
2023/03/04 03:47:20;;;;;;;0.77;0.77;;;6.00;99.90;;;;;;5039119;28;20075;-76
2023/03/04 03:49:46;;;;;;;0.80;0.80;;;6.00;99.90;;;;;;5040045;28;20072;-77
2023/03/04 03:52:12;;;;;;;0.70;0.70;;;6.00;99.90;;;;;;5040985;28;20051;-76
2023/03/04 03:54:38;;;;;;;0.70;0.70;;;5.90;99.90;;;;;;5033693;28;20468;-76
2023/03/04 03:57:04;;;;;;;0.70;0.70;;;5.90;99.90;;;;;;5038751;28;21016;-76
2023/03/04 03:59:30;;;;;;;0.70;0.70;;;5.90;99.90;;;;;;5036645;28;20040;-76
2023/03/04 04:01:55;;;;;;;0.77;0.77;;;5.90;99.90;;;;;;5034393;28;20048;-76
2023/03/04 04:04:21;;;;;;;0.80;0.80;;;6.00;99.90;;;;;;5034981;28;20058;-76
2023/03/04 04:06:47;;;;;;;0.80;0.80;;;5.90;99.90;;;;;;5037591;28;20040;-76
2023/03/04 04:09:12;;;;;;;0.80;0.80;;;6.00;99.90;;;;;;5019039;28;20060;-76
2023/03/04 04:11:38;;;;;;;0.77;0.77;;;6.00;99.90;;;;;;5037109;28;20048;-76
2023/03/04 04:14:04;;;;;;;0.73;0.73;;;6.00;99.90;;;;;;5036581;28;20055;-77
2023/03/04 04:16:30;;;;;;;0.70;0.70;;;5.90;99.90;;;;;;5036523;28;20048;-76
2023/03/04 04:18:56;;;;;;;0.70;0.70;;;6.00;99.90;;;;;;5038620;28;20131;-76
2023/03/04 04:21:21;;;;;;;0.70;0.70;;;6.00;99.90;;;;;;5035721;28;20040;-76
2023/03/04 04:23:47;;;;;;;0.80;0.80;;;5.90;99.90;;;;;;5037781;28;20478;-76
2023/03/04 04:26:13;;;;;;;0.75;0.75;;;6.00;99.90;;;;;;5034706;28;20048;-76
2023/03/04 04:28:38;;;;;;;0.80;0.80;;;5.90;99.90;;;;;;5039105;28;20094;-76
2023/03/04 04:31:08;;;;;;;0.80;0.80;;;5.90;99.90;;;;;;5037783;28;20056;-76
2023/03/04 04:33:34;;;;;;;0.77;0.77;;;6.00;99.90;;;;;;5037802;28;20119;-77
2023/03/04 04:36:00;;;;;;;0.80;0.80;;;6.00;99.90;;;;;;5035150;28;20120;-76
2023/03/04 04:38:26;;;;;;;0.77;0.77;;;5.90;99.90;;;;;;5039425;28;20980;-76
2023/03/04 04:40:52;;;;;;;0.70;0.70;;;6.00;99.90;;;;;;5035297;28;20070;-76
2023/03/04 04:43:17;;;;;;;0.70;0.70;;;6.00;99.90;;;;;;5035014;28;20048;-76
2023/03/04 04:45:43;;;;;;;0.70;0.70;;;5.90;99.90;;;;;;5037777;28;20041;-76
2023/03/04 04:48:09;;;;;;;0.70;0.70;;;6.00;99.90;;;;;;5035142;28;20044;-76
2023/03/04 04:50:35;;;;;;;0.70;0.70;;;6.00;99.90;;;;;;5038145;28;20040;-76
2023/03/04 04:53:00;;;;;;;0.75;0.75;;;6.00;99.90;;;;;;5035763;28;20055;-76
2023/03/04 04:55:27;;;;;;;0.77;0.77;;;6.00;99.90;;;;;;5035684;28;20051;-76
2023/03/04 04:57:52;;;;;;;0.70;0.70;;;6.00;99.90;;;;;;5036609;28;20307;-76
2023/03/04 05:00:18;;;;;;;0.70;0.70;;;6.00;99.90;;;;;;5038010;28;20040;-76
2023/03/04 05:02:44;;;;;;;0.73;0.73;;;6.00;99.90;;;;;;5038439;28;20105;-76
2023/03/04 05:05:10;;;;;;;0.70;0.70;;;5.90;99.90;;;;;;5031953;28;20047;-76
2023/03/04 05:07:35;;;;;;;0.70;0.70;;;5.90;99.90;;;;;;5039942;28;20877;-76
2023/03/04 05:10:01;;;;;;;0.70;0.70;;;5.90;99.90;;;;;;5052478;28;20040;-76
2023/03/04 05:12:27;;;;;;;0.70;0.70;;;5.90;99.90;;;;;;5054105;28;20614;-76
2023/03/04 05:14:53;;;;;;;0.73;0.73;;;5.90;99.90;;;;;;5051095;28;20134;-76
2023/03/04 05:17:18;;;;;;;0.80;0.80;;;5.90;99.90;;;;;;5056402;28;20052;-76
2023/03/04 05:19:44;;;;;;;0.70;0.70;;;5.90;99.90;;;;;;5058103;28;20144;-76
2023/03/04 05:22:10;;;;;;;0.75;0.75;;;5.80;99.90;;;;;;5056618;28;20151;-76
2023/03/04 05:24:35;;;;;;;0.68;0.68;;;5.90;99.90;;;;;;5051001;28;20044;-76
2023/03/04 05:27:01;;;;;;;0.70;0.70;;;5.90;99.90;;;;;;5054032;28;20072;-76
2023/03/04 05:29:27;;;;;;;0.80;0.80;;;5.90;99.90;;;;;;5053730;28;20110;-76
2023/03/04 05:31:53;;;;;;;0.73;0.73;;;5.90;99.90;;;;;;5051414;28;20058;-76
2023/03/04 05:34:18;;;;;;;0.70;0.70;;;5.90;99.90;;;;;;5055563;28;20041;-76
2023/03/04 05:36:44;;;;;;;0.70;0.70;;;5.90;99.90;;;;;;5052615;28;20056;-76
2023/03/04 05:39:10;;;;;;;0.80;0.80;;;5.90;99.90;;;;;;5057857;28;20045;-76
2023/03/04 05:41:36;;;;;;;0.70;0.70;;;5.90;99.90;;;;;;5054848;28;20237;-76
2023/03/04 05:44:01;;;;;;;0.70;0.70;;;5.80;99.90;;;;;;5054944;28;20044;-76
2023/03/04 05:46:27;;;;;;;0.70;0.70;;;5.80;99.90;;;;;;5047652;28;20043;-75
2023/03/04 05:48:53;;;;;;;0.70;0.70;;;5.80;99.90;;;;;;5057344;28;20097;-76
2023/03/04 05:51:20;;;;;;;0.70;0.70;;;5.70;99.90;;;;;;5056611;28;20475;-76
2023/03/04 05:53:47;;;;;;;0.70;0.70;;;5.80;99.90;;;;;;5053507;28;20059;-76
2023/03/04 05:56:15;;;;;;;0.70;0.70;;;5.80;99.90;;;;;;5048684;28;20053;-76
2023/03/04 05:58:41;;;;;;;0.70;0.70;;;5.80;99.90;;;;;;5054337;28;20097;-76
2023/03/04 06:01:08;;;;;;;0.73;0.73;;;5.70;99.90;;;;;;5056587;28;20116;-76
2023/03/04 06:03:34;;;;;;;0.80;0.80;;;5.70;99.90;;;;;;5055959;28;20055;-76
2023/03/04 06:05:59;;;;;;;0.70;0.70;;;5.70;99.90;;;;;;5053552;28;20580;-76
2023/03/04 06:08:26;;;;;;;0.70;0.70;;;5.70;99.90;;;;;;5056606;28;20048;-76
2023/03/04 06:10:53;;;;;;;0.70;0.70;;;5.80;99.90;;;;;;5053314;28;20048;-76
2023/03/04 06:13:19;;;;;;;0.70;0.70;;;5.70;99.90;;;;;;5054328;28;20052;-76
2023/03/04 06:15:45;;;;;;;0.70;0.70;;;5.70;99.90;;;;;;5050582;28;20122;-76
2023/03/04 06:18:11;;;;;;;0.73;0.73;;;5.70;99.90;;;;;;5056070;28;20132;-76
2023/03/04 06:20:37;;;;;;;0.70;0.70;;;5.70;99.90;;;;;;5054832;28;20157;-76
2023/03/04 06:23:03;;;;;;;0.70;0.70;;;5.70;99.90;;;;;;5052643;28;20051;-76
2023/03/04 06:25:29;;;;;;;0.70;0.70;;;5.70;99.90;;;;;;5068485;28;20036;-76
2023/03/04 06:27:55;;;;;;;0.73;0.73;;;5.70;99.90;;;;;;5055275;28;20129;-76
2023/03/04 06:30:21;;;;;;;0.80;0.80;;;5.60;99.90;;;;;;5049447;28;20674;-76
2023/03/04 06:32:47;;;;;;;0.70;0.70;;;5.60;99.90;;;;;;5053247;28;20497;-76
2023/03/04 06:35:14;;;;;;;0.70;0.70;;;5.60;99.90;;;;;;5048092;28;20105;-76
2023/03/04 06:37:40;;;;;;;0.70;0.70;;;5.70;99.90;;;;;;5052199;28;20504;-76
2023/03/04 06:40:06;;;;;;;0.70;0.70;;;5.70;99.90;;;;;;5054867;28;20052;-76
2023/03/04 06:42:34;;;;;;;0.70;0.70;;;5.70;99.90;;;;;;5052749;28;20068;-76
2023/03/04 06:45:00;;;;;;;0.77;0.77;;;5.70;99.90;;;;;;5052704;28;20080;-76
2023/03/04 06:47:26;;;;;;;0.70;0.70;;;5.60;99.90;;;;;;5052443;28;20060;-76
2023/03/04 06:49:52;;;;;;;0.70;0.70;;;5.50;99.90;;;;;;5054332;28;20052;-76
2023/03/04 06:52:18;;;;;;;0.70;0.70;;;5.60;99.90;;;;;;5052416;28;20052;-76
2023/03/04 06:54:44;;;;;;;0.70;0.70;;;5.50;99.90;;;;;;5052111;28;20155;-77
2023/03/04 06:57:09;;;;;;;0.70;0.70;;;5.50;99.90;;;;;;5053996;28;20044;-75
2023/03/04 06:59:35;;;;;;;0.70;0.70;;;5.50;99.90;;;;;;5053585;28;20086;-75
2023/03/04 07:02:01;;;;;;;0.70;0.70;;;5.60;99.90;;;;;;5052561;28;20302;-76
2023/03/04 07:04:27;;;;;;;0.70;0.70;;;5.60;99.90;;;;;;5049253;28;20119;-76
2023/03/04 07:06:52;;;;;;;0.70;0.70;;;5.70;99.90;;;;;;5049970;28;20049;-77
2023/03/04 07:09:18;;;;;;;0.70;0.70;;;5.70;99.90;;;;;;5050925;28;20048;-76
2023/03/04 07:11:44;;;;;;;0.80;0.80;;;5.80;99.90;;;;;;5053715;28;20579;-76
2023/03/04 07:14:10;;;;;;;0.80;0.80;;;5.90;99.90;;;;;;5053852;28;20048;-76
2023/03/04 07:16:36;;;;;;;0.70;0.70;;;6.00;99.90;;;;;;5051540;28;20071;-76
2023/03/04 07:19:02;;;;;;;0.70;0.70;;;6.10;99.90;;;;;;5054209;28;20102;-76
2023/03/04 07:21:28;;;;;;;0.70;0.70;;;6.20;99.90;;;;;;5054446;28;20421;-76
2023/03/04 07:23:54;;;;;;;0.70;0.70;;;6.20;99.90;;;;;;5056476;28;20452;-76
2023/03/04 07:26:20;;;;;;;0.70;0.70;;;6.20;99.90;;;;;;5046543;28;20101;-77
2023/03/04 07:28:46;;;;;;;0.70;0.70;;;6.20;99.90;;;;;;5054629;28;20040;-77
2023/03/04 07:31:19;;;;;;;0.70;0.70;;;6.30;99.90;;;;;;5050492;28;20040;-76
2023/03/04 07:33:45;;;;;;;0.70;0.70;;;6.30;99.90;;;;;;5052831;28;20044;-77
2023/03/04 07:36:13;;;;;;;0.70;0.70;;;6.40;99.90;;;;;;5050351;28;20425;-77
2023/03/04 07:38:42;;;;;;;0.70;0.70;;;6.40;99.90;;;;;;5053961;28;20572;-76
2023/03/04 07:41:08;;;;;;;0.70;0.70;;;6.40;99.90;;;;;;5053835;28;20490;-76
2023/03/04 07:43:34;;;;;;;0.70;0.70;;;6.40;99.90;;;;;;5054329;28;20060;-76
2023/03/04 07:46:00;;;;;;;0.63;0.63;;;6.40;99.90;;;;;;5050239;28;20856;-76
2023/03/04 07:48:26;;;;;;;0.70;0.70;;;6.50;99.90;;;;;;5053097;28;20054;-76
2023/03/04 07:51:05;;;;;;;0.60;0.60;;;6.50;99.90;;;;;;5053134;28;20379;-76
2023/03/04 07:53:32;;;;;;;0.70;0.70;;;6.60;99.90;;;;;;5038319;28;20106;-76
2023/03/04 07:55:58;;;;;;;0.70;0.70;;;6.60;99.90;;;;;;5052060;28;20058;-77
2023/03/04 07:58:24;;;;;;;0.70;0.70;;;6.60;99.90;;;;;;5052293;28;20127;-77
2023/03/04 08:00:50;;;;;;;0.70;0.70;;;6.70;99.90;;;;;;5053780;28;20123;-76
2023/03/04 08:03:15;;;;;;;0.70;0.70;;;6.70;99.90;;;;;;5051331;28;20102;-78
2023/03/04 08:05:41;;;;;;;0.70;0.70;;;6.80;99.90;;;;;;5050503;28;20048;-77
2023/03/04 08:08:07;;;;;;;0.70;0.70;;;6.90;99.90;;;;;;5052070;28;20623;-76
2023/03/04 08:10:32;;;;;;;0.70;0.70;;;7.10;99.90;;;;;;5053746;28;20497;-76
2023/03/04 08:12:58;;;;;;;0.70;0.70;;;7.20;99.90;;;;;;5054148;28;20131;-77
2023/03/04 08:15:26;;;;;;;0.70;0.70;;;7.40;99.90;;;;;;5049363;28;20576;-76
2023/03/04 08:17:52;;;;;;;0.70;0.70;;;7.50;99.90;;;;;;5052639;28;20503;-76
2023/03/04 08:20:17;;;;;;;0.70;0.70;;;7.50;99.90;;;;;;5052044;28;20052;-76
2023/03/04 08:22:43;;;;;;;0.70;0.70;;;7.70;99.90;;;;;;5051703;28;20044;-76
2023/03/04 08:25:09;;;;;;;0.60;0.60;;;7.70;99.90;;;;;;5047463;28;20048;-77
2023/03/04 08:27:36;;;;;;;0.65;0.65;;;7.60;99.90;;;;;;5053596;28;20040;-77
2023/03/04 08:30:03;;;;;;;0.68;0.68;;;7.60;99.90;;;;;;5048877;28;20049;-76
2023/03/04 08:32:29;;;;;;;0.70;0.70;;;7.80;99.90;;;;;;5053038;28;20051;-76
2023/03/04 08:34:55;;;;;;;0.70;0.70;;;7.70;99.90;;;;;;5044950;28;20048;-77
2023/03/04 08:37:21;;;;;;;0.70;0.70;;;7.70;99.90;;;;;;5052580;28;20722;-77
2023/03/04 08:39:47;;;;;;;0.60;0.60;;;7.80;99.90;;;;;;5053977;28;20049;-76
2023/03/04 08:42:13;;;;;;;0.70;0.70;;;7.80;99.90;;;;;;5051651;28;20040;-76
2023/03/04 08:44:38;;;;;;;0.70;0.70;;;7.80;99.90;;;;;;5043848;28;20045;-77
2023/03/04 08:47:08;;;;;;;0.68;0.68;;;7.80;99.90;;;;;;5056855;28;20052;-77
2023/03/04 08:49:33;;;;;;;0.70;0.70;;;7.80;99.90;;;;;;5056421;28;20036;-76
2023/03/04 08:51:59;;;;;;;0.68;0.68;;;7.50;99.90;;;;;;5055456;28;20059;-76
2023/03/04 08:54:25;;;;;;;0.70;0.70;;;7.50;99.90;;;;;;5051061;28;20036;-78
2023/03/04 08:56:50;;;;;;;0.70;0.70;;;7.50;99.90;;;;;;5053048;28;20052;-75
2023/03/04 08:59:16;;;;;;;0.70;0.70;;;7.70;99.90;;;;;;5049752;28;20181;-77
2023/03/04 09:01:42;;;;;;;0.70;0.70;;;8.00;99.90;;;;;;5056376;28;20136;-77
2023/03/04 09:04:08;;;;;;;0.70;0.70;;;8.20;99.90;;;;;;5048040;28;20966;-77
2023/03/04 09:06:33;;;;;;;0.63;0.63;;;8.20;99.90;;;;;;5044596;28;20041;-77
2023/03/04 09:08:59;;;;;;;0.65;0.65;;;8.10;99.90;;;;;;5045650;28;20047;-77
2023/03/04 09:11:24;;;;;;;0.70;0.70;;;8.00;99.90;;;;;;5050463;28;20064;-77
2023/03/04 09:13:50;;;;;;;0.68;0.68;;;7.90;99.90;;;;;;5051841;28;20139;-77
2023/03/04 09:16:31;;;;;;;0.65;0.65;;;7.80;99.90;;;;;;5049296;28;20587;-77
2023/03/04 09:18:58;;;;;;;0.70;0.70;;;7.90;99.90;;;;;;5044566;28;20040;-76
2023/03/04 09:21:24;;;;;;;0.68;0.68;;;8.20;99.90;;;;;;5042039;28;20055;-77
2023/03/04 09:23:50;;;;;;;0.70;0.70;;;8.20;99.90;;;;;;5052971;28;20047;-76
2023/03/04 09:26:25;;;;;;;0.70;0.70;;;8.00;99.90;;;;;;5056538;28;20052;-77
2023/03/04 09:28:52;;;;;;;0.60;0.60;;;8.10;99.90;;;;;;5053253;28;20052;-77
2023/03/04 09:31:19;;;;;;;0.60;0.60;;;7.70;99.90;;;;;;5048479;28;20053;-77
2023/03/04 09:33:45;;;;;;;0.70;0.70;;;7.30;99.90;;;;;;5055967;28;20875;-77
2023/03/04 09:36:12;;;;;;;0.65;0.65;;;7.20;99.90;;;;;;5053674;28;20731;-78
2023/03/04 09:38:39;;;;;;;0.80;0.80;;;7.00;99.90;;;;;;5043632;28;20056;-79
2023/03/04 09:41:39;;;;;;;0.63;0.63;;;6.80;99.90;;;;;;5049210;28;20393;-77
2023/03/04 09:44:20;;;;;;;0.60;0.60;;;6.80;99.90;;;;;;5049374;28;20147;-77
2023/03/04 09:46:47;;;;;;;0.70;0.70;;;6.90;99.90;;;;;;5041703;28;20088;-78
2023/03/04 09:49:14;;;;;;;0.70;0.70;;;7.10;99.90;;;;;;5040033;28;20055;-78
2023/03/04 09:52:02;;;;;;;0.70;0.70;;;7.20;99.90;;;;;;5039826;28;20612;-76
2023/03/04 09:54:38;;;;;;;0.70;0.70;;;7.30;99.90;;;;;;5052128;28;20036;-78
2023/03/04 09:57:27;;;;;;;0.65;0.65;;;7.60;99.90;;;;;;5048875;28;20250;-77
2023/03/04 10:00:02;;;;;;;0.70;0.70;;;7.70;99.90;;;;;;5047979;28;20453;-78
2023/03/04 10:02:39;;;;;;;0.68;0.68;;;7.70;99.90;;;;;;5049110;28;20071;-78
2023/03/04 10:05:06;;;;;;;0.60;0.60;;;7.90;99.90;;;;;;5038641;28;20469;-78
2023/03/04 10:07:40;;;;;;;0.60;0.60;;;7.70;99.90;;;;;;5037083;28;20225;-78
2023/03/04 10:10:35;;;;;;;0.60;0.60;;;7.70;99.90;;;;;;5042279;28;20052;-79
2023/03/04 10:13:03;;;;;;;0.63;0.63;;;7.70;99.90;;;;;;5039228;28;20561;-78
2023/03/04 10:15:47;;;;;;;0.65;0.65;;;7.50;99.90;;;;;;5041606;28;20056;-78
2023/03/04 10:18:35;;;;;;;0.60;0.60;;;7.20;99.90;;;;;;5033392;28;20045;-77
2023/03/04 10:21:16;;;;;;;0.70;0.70;;;7.20;99.90;;;;;;5040268;28;20044;-77
2023/03/04 10:23:42;;;;;;;0.68;0.68;;;7.20;99.90;;;;;;5042863;28;20036;-77
2023/03/04 10:26:13;;;;;;;0.60;0.60;;;7.30;99.90;;;;;;5031564;28;20051;-78
2023/03/04 10:28:39;;;;;;;0.60;0.60;;;7.40;99.90;;;;;;5030984;28;20055;-77
2023/03/04 10:31:07;;;;;;;0.65;0.65;;;7.70;99.90;;;;;;5038789;28;20049;-78
2023/03/04 10:33:36;;;;;;;0.65;0.65;;;7.50;99.90;;;;;;5040321;28;20144;-77
2023/03/04 10:36:25;;;;;;;0.68;0.68;;;7.60;99.90;;;;;;5039059;28;20555;-78
2023/03/04 10:38:58;;;;;;;0.60;0.60;;;7.70;99.90;;;;;;5039647;28;20084;-77
2023/03/04 10:41:27;;;;;;;0.63;0.63;;;7.80;99.90;;;;;;5037951;28;20114;-77
2023/03/04 10:43:58;;;;;;;0.70;0.70;;;7.90;99.90;;;;;;5040143;28;20709;-77
2023/03/04 10:46:25;;;;;;;0.70;0.70;;;7.90;99.90;;;;;;5040837;28;20048;-76
2023/03/04 10:48:52;;;;;;;0.60;0.60;;;8.00;99.90;;;;;;5032564;28;20170;-77
2023/03/04 10:51:24;;;;;;;0.63;0.63;;;8.10;99.90;;;;;;5042904;28;20132;-77
2023/03/04 10:53:56;;;;;;;0.60;0.60;;;8.00;99.90;;;;;;5040458;28;20666;-77
2023/03/04 10:56:41;;;;;;;0.60;0.60;;;7.80;99.90;;;;;;5039035;28;20118;-78
2023/03/04 10:59:38;;;;;;;0.60;0.60;;;7.50;99.90;;;;;;5041958;28;20043;-77
2023/03/04 11:02:29;;;;;;;0.70;0.70;;;7.40;99.90;;;;;;5043212;28;20052;-77
2023/03/04 11:05:20;;;;;;;0.60;0.60;;;7.50;99.90;;;;;;5041227;28;20036;-77
2023/03/04 11:07:54;;;;;;;0.70;0.70;;;7.60;99.90;;;;;;5018984;28;20056;-77
2023/03/04 11:10:35;;;;;;;0.60;0.60;;;7.80;99.90;;;;;;5036336;28;20382;-77
2023/03/04 11:13:06;;;;;;;0.60;0.60;;;7.70;99.90;;;;;;5052583;28;20103;-77
2023/03/04 11:16:02;;;;;;;0.60;0.60;;;7.80;99.90;;;;;;5053624;28;20064;-77
2023/03/04 11:18:52;;;;;;;0.60;0.60;;;8.20;99.90;;;;;;5047442;28;20466;-76
2023/03/04 11:21:21;;;;;;;0.60;0.60;;;8.50;99.90;;;;;;5039157;28;20079;-76
2023/03/04 11:23:57;;;;;;;0.70;0.70;;;8.60;99.90;;;;;;5053294;28;20471;-78
2023/03/04 11:26:47;;;;;;;0.65;0.65;;;8.60;99.90;;;;;;5036019;28;20056;-76
2023/03/04 11:29:28;;;;;;;0.70;0.70;;;8.60;99.90;;;;;;5042635;28;20033;-76
2023/03/04 11:32:00;;;;;;;0.60;0.60;;;8.60;99.90;;;;;;5037464;28;20049;-76
2023/03/04 11:34:45;;;;;;;0.63;0.63;;;8.40;99.90;;;;;;5044364;28;20044;-77
2023/03/04 11:37:19;;;;;;;0.60;0.60;;;8.20;99.90;;;;;;5043997;28;20119;-77
2023/03/04 11:40:00;;;;;;;0.60;0.60;;;8.20;99.90;;;;;;5045198;28;20044;-76
2023/03/04 11:42:38;;;;;;;0.70;0.70;;;8.20;99.90;;;;;;5042929;28;20513;-76
2023/03/04 11:45:35;;;;;;;0.60;0.60;;;7.80;99.90;;;;;;5038768;28;20042;-76
2023/03/04 11:48:03;;;;;;;0.60;0.60;;;8.00;99.90;;;;;;5016551;28;20069;-76
2023/03/04 11:50:46;;;;;;;0.60;0.60;;;8.10;99.90;;;;;;5047061;28;20041;-78
2023/03/04 11:53:46;;;;;;;0.60;0.60;;;8.00;99.90;;;;;;5046782;28;20131;-76
2023/03/04 11:56:31;;;;;;;0.60;0.60;;;8.00;99.90;;;;;;5050165;28;20083;-77
2023/03/04 11:59:03;;;;;;;0.60;0.60;;;8.30;99.90;;;;;;5047796;28;20565;-76
2023/03/04 12:02:21;;;;;;;0.60;0.60;;;8.40;99.90;;;;;;5049368;28;20072;-77
2023/03/04 12:05:11;;;;;;;0.60;0.60;;;8.50;99.90;;;;;;5036794;28;20056;-76
2023/03/04 12:07:55;;;;;;;0.70;0.70;;;8.40;99.90;;;;;;5048120;28;20131;-77
2023/03/04 12:10:56;;;;;;;0.60;0.60;;;8.20;99.90;;;;;;5054397;28;20050;-76
2023/03/04 12:13:51;;;;;;;0.60;0.60;;;8.20;99.90;;;;;;5052549;28;20622;-76
2023/03/04 12:16:38;;;;;;;0.68;0.68;;;8.20;99.90;;;;;;5049248;28;20047;-76
2023/03/04 12:19:44;;;;;;;0.60;0.60;;;8.00;99.90;;;;;;5052625;28;20048;-77
2023/03/04 12:22:18;;;;;;;0.60;0.60;;;7.80;99.90;;;;;;5012314;28;20064;-76
2023/03/04 12:24:59;;;;;;;0.60;0.60;;;8.10;99.90;;;;;;5058169;28;20698;-77
2023/03/04 12:27:44;;;;;;;0.60;0.60;;;8.10;99.90;;;;;;5051839;28;20071;-76
2023/03/04 12:30:23;;;;;;;0.60;0.60;;;8.40;99.90;;;;;;5058109;28;20072;-76
2023/03/04 12:33:06;;;;;;;0.60;0.60;;;8.30;99.90;;;;;;5057576;28;20041;-76
2023/03/04 12:35:40;;;;;;;0.60;0.60;;;8.40;99.90;;;;;;5053897;28;20044;-76
2023/03/04 12:38:24;;;;;;;;;;;8.50;99.90;;;;;;5052222;28;20040;-76
2023/03/04 12:40:56;;;;;;;0.60;0.60;;;8.60;99.90;;;;;;5073202;28;20381;-78
2023/03/04 12:43:40;;;;;;;0.60;0.60;;;8.40;99.90;;;;;;5054589;28;20143;-76
2023/03/04 12:46:18;;;;;;;0.60;0.60;;;8.40;99.90;;;;;;5054271;28;20658;-77
2023/03/04 12:48:54;;;;;;;0.52;0.52;;;8.50;99.90;;;;;;5047276;28;20064;-76
2023/03/04 12:51:38;;;;;;;0.60;0.60;;;8.40;99.90;;;;;;5050459;28;20103;-76
2023/03/04 12:54:32;;;;;;;0.60;0.60;;;8.70;99.90;;;;;;5048799;28;20075;-76
2023/03/04 12:57:22;;;;;;;0.60;0.60;;;8.80;99.90;;;;;;5046628;28;20046;-77
2023/03/04 12:59:54;;;;;;;0.60;0.60;;;8.90;99.90;;;;;;5046536;28;20056;-77
2023/03/04 13:02:38;;;;;;;0.60;0.60;;;9.30;99.90;;;;;;5052222;28;20037;-77
2023/03/04 13:05:21;;;;;;;0.60;0.60;;;9.50;99.90;;;;;;5056337;28;20051;-77
2023/03/04 13:08:24;;;;;;;0.60;0.60;;;9.20;99.90;;;;;;5051568;28;20060;-76
2023/03/04 13:10:50;;;;;;;0.60;0.60;;;9.00;99.90;;;;;;5049441;28;20041;-76
2023/03/04 13:13:59;;;;;;;0.60;0.60;;;9.00;99.90;;;;;;5051339;28;20056;-77